createdAt,value
2018-12-13T00:00:23.531Z,8.93
2018-12-13T00:02:52.387Z,8.30
2018-12-13T00:05:21.254Z,8.30
2018-12-13T00:07:50.250Z,8.00
2018-12-13T00:10:19.107Z,8.00
2018-12-13T00:12:47.916Z,7.63
2018-12-13T00:15:19.490Z,7.23
2018-12-13T00:17:48.266Z,7.30
2018-12-13T00:20:17.077Z,7.70
2018-12-13T00:22:45.999Z,7.40
2018-12-13T00:25:14.974Z,7.10
2018-12-13T00:27:43.864Z,7.03
2018-12-13T00:30:12.665Z,6.33
2018-12-13T00:32:41.624Z,6.83
2018-12-13T00:35:10.454Z,7.17
2018-12-13T00:37:39.398Z,6.87
2018-12-13T00:40:08.325Z,6.60
2018-12-13T00:42:37.165Z,7.17
2018-12-13T00:45:06.638Z,6.57
2018-12-13T00:47:35.460Z,6.80
2018-12-13T00:50:04.245Z,6.47
2018-12-13T00:52:33.249Z,6.80
2018-12-13T00:55:02.089Z,6.27
2018-12-13T00:57:30.936Z,6.27
2018-12-13T00:59:59.908Z,6.10
2018-12-13T01:02:28.739Z,6.47
2018-12-13T01:04:57.511Z,6.00
2018-12-13T01:07:26.370Z,5.90
2018-12-13T01:09:55.133Z,6.20
2018-12-13T01:12:24.441Z,8.60
2018-12-13T01:14:53.313Z,8.20
2018-12-13T01:17:22.149Z,8.73
2018-12-13T01:19:50.973Z,8.00
2018-12-13T01:22:20.011Z,7.27
2018-12-13T01:24:48.897Z,7.03
2018-12-13T01:27:17.760Z,6.53
2018-12-13T01:29:46.776Z,7.00
2018-12-13T01:32:15.594Z,6.67
2018-12-13T01:34:44.403Z,6.43
2018-12-13T01:37:13.397Z,6.23
2018-12-13T01:39:42.253Z,5.93
2018-12-13T01:42:11.159Z,5.97
2018-12-13T01:44:40.248Z,5.90
2018-12-13T01:47:09.283Z,6.03
2018-12-13T01:49:38.160Z,6.20
2018-12-13T01:52:07.153Z,5.50
2018-12-13T01:54:36.127Z,5.73
2018-12-13T01:57:04.980Z,5.60
2018-12-13T01:59:33.951Z,5.63
2018-12-13T02:02:02.769Z,6.57
2018-12-13T02:04:31.749Z,5.97
2018-12-13T02:07:00.621Z,6.07
2018-12-13T02:09:29.435Z,5.83
2018-12-13T02:11:58.451Z,5.80
2018-12-13T02:14:27.352Z,5.80
2018-12-13T02:16:56.286Z,5.93
2018-12-13T02:19:25.151Z,5.90
2018-12-13T02:21:53.957Z,5.67
2018-12-13T02:24:22.745Z,5.80
2018-12-13T02:26:51.605Z,6.10
2018-12-13T02:29:20.454Z,5.90
2018-12-13T02:31:49.432Z,5.90
2018-12-13T02:34:18.394Z,6.43
2018-12-13T02:36:47.248Z,5.80
2018-12-13T02:39:16.177Z,5.90
2018-12-13T02:41:45.265Z,5.50
2018-12-13T02:44:14.109Z,5.50
2018-12-13T02:46:42.926Z,5.67
2018-12-13T02:49:11.753Z,5.10
2018-12-13T02:51:40.571Z,5.30
2018-12-13T02:54:09.444Z,5.50
2018-12-13T02:56:38.301Z,5.93
2018-12-13T02:59:07.357Z,5.77
2018-12-13T03:01:36.238Z,5.40
2018-12-13T03:04:05.089Z,5.30
2018-12-13T03:06:34.044Z,5.20
2018-12-13T03:09:03.065Z,5.30
2018-12-13T03:11:31.937Z,5.10
2018-12-13T03:14:00.769Z,5.30
2018-12-13T03:16:29.723Z,5.50
2018-12-13T03:18:58.577Z,5.30
2018-12-13T03:21:27.411Z,5.07
2018-12-13T03:23:56.461Z,5.20
2018-12-13T03:26:25.287Z,5.20
2018-12-13T03:28:54.151Z,5.37
2018-12-13T03:31:23.008Z,5.20
2018-12-13T03:33:51.958Z,5.50
2018-12-13T03:36:20.806Z,5.40
2018-12-13T03:38:49.920Z,5.00
2018-12-13T03:41:18.790Z,4.90
2018-12-13T03:43:47.821Z,5.13
2018-12-13T03:46:16.628Z,5.07
2018-12-13T03:48:45.450Z,5.07
2018-12-13T03:51:14.471Z,5.00
2018-12-13T03:53:43.226Z,4.90
2018-12-13T03:56:12.076Z,4.77
2018-12-13T03:58:40.908Z,4.97
2018-12-13T04:01:09.997Z,4.53
2018-12-13T04:03:38.956Z,4.97
2018-12-13T04:06:07.860Z,5.13
2018-12-13T04:08:36.812Z,5.30
2018-12-13T04:11:05.669Z,4.97
2018-12-13T04:13:34.660Z,4.83
2018-12-13T04:16:03.479Z,4.90
2018-12-13T04:18:32.331Z,5.20
2018-12-13T04:21:01.306Z,4.00
2018-12-13T04:23:30.129Z,4.53
2018-12-13T04:25:58.957Z,4.47
2018-12-13T04:28:28.173Z,4.40
2018-12-13T04:30:57.140Z,4.77
2018-12-13T04:33:25.913Z,4.60
2018-12-13T04:35:54.732Z,4.70
2018-12-13T04:38:23.692Z,4.23
2018-12-13T04:40:52.650Z,4.10
2018-12-13T04:43:21.703Z,4.37
2018-12-13T04:45:50.573Z,4.33
2018-12-13T04:48:19.432Z,4.20
2018-12-13T04:50:48.201Z,4.17
2018-12-13T04:53:17.108Z,4.07
2018-12-13T04:55:45.943Z,4.10
2018-12-13T04:58:14.733Z,4.43
2018-12-13T05:00:43.581Z,3.97
2018-12-13T05:03:12.392Z,3.90
2018-12-13T05:05:41.368Z,3.90
2018-12-13T05:08:10.752Z,4.23
2018-12-13T05:10:57.457Z,3.40
2018-12-13T05:13:26.292Z,3.77
2018-12-13T05:15:55.164Z,3.80
2018-12-13T05:18:23.991Z,3.87
2018-12-13T05:20:52.849Z,3.80
2018-12-13T05:23:21.841Z,3.90
2018-12-13T05:25:50.585Z,4.50
2018-12-13T05:28:19.485Z,4.40
2018-12-13T05:30:48.314Z,4.67
2018-12-13T05:33:17.187Z,5.40
2018-12-13T05:35:45.994Z,8.63
2018-12-13T05:38:14.817Z,6.70
2018-12-13T05:40:43.857Z,5.53
2018-12-13T05:43:12.671Z,5.60
2018-12-13T05:45:41.500Z,4.93
2018-12-13T05:48:10.421Z,5.00
2018-12-13T05:50:39.190Z,4.37
2018-12-13T05:53:08.011Z,4.67
2018-12-13T06:04:22.006Z,8.80
2018-12-13T06:06:50.788Z,7.47
2018-12-13T06:09:19.638Z,6.80
2018-12-13T06:11:48.541Z,6.30
2018-12-13T06:14:17.344Z,6.23
2018-12-13T06:16:46.294Z,6.10
2018-12-13T06:19:15.084Z,7.63
2018-12-13T06:21:44.002Z,6.57
2018-12-13T06:24:13.046Z,11.53
2018-12-13T06:26:41.909Z,11.03
2018-12-13T06:29:10.722Z,10.90
2018-12-13T06:31:39.596Z,10.07
2018-12-13T06:34:08.415Z,9.57
2018-12-13T06:36:37.282Z,9.07
2018-12-13T06:39:08.074Z,9.30
2018-12-13T06:41:37.014Z,8.40
2018-12-13T06:44:05.882Z,9.03
2018-12-13T06:46:34.709Z,8.00
2018-12-13T06:49:03.520Z,8.30
2018-12-13T06:51:32.500Z,7.80
2018-12-13T06:54:01.350Z,8.00
2018-12-13T06:56:30.305Z,8.17
2018-12-13T06:58:59.220Z,9.17
2018-12-13T07:01:28.119Z,8.00
2018-12-13T07:03:57.099Z,7.60
2018-12-13T07:06:25.928Z,7.97
2018-12-13T07:08:54.789Z,7.83
2018-12-13T07:11:23.734Z,7.77
2018-12-13T07:13:52.508Z,7.67
2018-12-13T07:16:21.465Z,7.77
2018-12-13T07:18:50.438Z,7.30
2018-12-13T07:21:19.298Z,7.70
2018-12-13T07:23:48.145Z,6.93
2018-12-13T07:26:16.936Z,7.20
2018-12-13T07:28:45.890Z,6.90
2018-12-13T07:31:14.701Z,7.10
2018-12-13T07:33:43.698Z,7.17
2018-12-13T07:36:12.560Z,6.80
2018-12-13T07:38:41.527Z,7.23
2018-12-13T07:41:10.327Z,6.97
2018-12-13T07:43:39.200Z,6.53
2018-12-13T07:46:08.158Z,6.90
2018-12-13T07:48:37.058Z,6.83
2018-12-13T07:51:06.000Z,7.43
2018-12-13T07:53:34.785Z,7.03
2018-12-13T07:56:03.641Z,6.80
2018-12-13T07:58:32.677Z,6.80
2018-12-13T08:01:01.462Z,6.60
2018-12-13T08:03:30.297Z,6.53
2018-12-13T08:05:59.324Z,6.50
2018-12-13T08:08:28.167Z,6.77
2018-12-13T08:10:56.973Z,6.73
2018-12-13T08:13:25.924Z,6.40
2018-12-13T08:15:54.749Z,6.47
2018-12-13T08:18:23.689Z,6.10
2018-12-13T08:20:52.488Z,5.90
2018-12-13T08:23:21.349Z,5.93
2018-12-13T08:25:50.360Z,6.00
2018-12-13T08:28:19.158Z,5.63
2018-12-13T08:30:48.017Z,6.27
2018-12-13T08:33:16.867Z,6.17
2018-12-13T08:35:45.838Z,5.97
2018-12-13T08:38:14.859Z,6.00
2018-12-13T08:40:43.664Z,6.20
2018-12-13T08:43:12.524Z,5.73
2018-12-13T08:45:41.536Z,5.90
2018-12-13T08:48:10.401Z,5.80
2018-12-13T08:50:39.206Z,5.27
2018-12-13T08:53:08.005Z,5.40
2018-12-13T08:55:36.816Z,5.47
2018-12-13T08:58:05.791Z,5.40
2018-12-13T09:00:34.768Z,5.47
2018-12-13T09:03:03.629Z,5.77
2018-12-13T09:05:32.546Z,5.00
2018-12-13T09:08:01.496Z,5.17
2018-12-13T09:10:30.348Z,5.17
2018-12-13T09:12:59.316Z,5.10
2018-12-13T09:15:28.272Z,5.07
2018-12-13T09:17:57.070Z,5.90
2018-12-13T09:20:25.897Z,5.30
2018-12-13T09:22:54.769Z,5.20
2018-12-13T09:25:23.771Z,5.47
2018-12-13T09:27:52.734Z,5.20
2018-12-13T09:30:21.692Z,5.17
2018-12-13T09:32:50.549Z,4.90
2018-12-13T09:35:19.474Z,4.97
2018-12-13T09:37:48.312Z,4.90
2018-12-13T09:40:17.363Z,5.03
2018-12-13T09:42:46.226Z,4.63
2018-12-13T09:45:15.010Z,5.03
2018-12-13T09:47:43.865Z,5.13
2018-12-13T09:50:12.816Z,4.00
2018-12-13T09:52:41.610Z,4.70
2018-12-13T09:55:10.584Z,4.60
2018-12-13T09:57:39.389Z,4.70
2018-12-13T10:00:09.828Z,4.50
2018-12-13T10:02:38.795Z,4.90
2018-12-13T10:05:07.700Z,4.80
2018-12-13T10:07:36.661Z,4.70
2018-12-13T10:10:05.620Z,4.37
2018-12-13T10:12:34.612Z,4.67
2018-12-13T10:15:03.486Z,4.40
2018-12-13T10:17:32.316Z,4.60
2018-12-13T10:20:01.423Z,3.97
2018-12-13T10:22:30.480Z,4.30
2018-12-13T10:24:59.283Z,4.50
2018-12-13T10:27:28.158Z,4.47
2018-12-13T10:29:56.993Z,4.50
2018-12-13T10:32:26.034Z,4.37
2018-12-13T10:34:54.988Z,3.83
2018-12-13T10:37:23.972Z,4.10
2018-12-13T10:39:52.965Z,4.43
2018-12-13T10:42:21.932Z,4.70
2018-12-13T10:44:50.785Z,4.53
2018-12-13T10:47:19.822Z,4.10
2018-12-13T10:49:48.665Z,4.27
2018-12-13T10:52:17.528Z,4.20
2018-12-13T10:54:46.402Z,4.20
2018-12-13T10:57:15.249Z,3.93
2018-12-13T10:59:44.287Z,3.93
2018-12-13T11:02:18.343Z,4.23
2018-12-13T11:04:47.478Z,4.57
2018-12-13T11:07:16.289Z,3.93
2018-12-13T11:09:45.158Z,3.80
2018-12-13T11:12:14.172Z,3.80
2018-12-13T11:14:42.985Z,3.90
2018-12-13T11:17:11.839Z,4.50
2018-12-13T11:19:40.682Z,3.67
2018-12-13T11:22:09.680Z,3.63
2018-12-13T11:24:38.598Z,4.50
2018-12-13T11:29:28.431Z,4.13
2018-12-13T11:31:57.380Z,3.60
2018-12-13T11:34:26.333Z,3.63
2018-12-13T11:36:55.126Z,3.93
2018-12-13T11:39:24.170Z,3.77
2018-12-13T11:41:53.019Z,4.13
2018-12-13T11:44:21.936Z,3.30
2018-12-13T11:46:51.073Z,4.03
2018-12-13T11:49:20.035Z,3.60
2018-12-13T11:51:48.997Z,3.60
2018-12-13T11:54:42.270Z,3.77
2018-12-13T11:57:11.274Z,3.40
2018-12-13T11:59:40.127Z,3.63
2018-12-13T12:02:08.962Z,3.63
2018-12-13T12:04:37.992Z,3.63
2018-12-13T12:07:07.150Z,3.53
2018-12-13T12:09:35.997Z,3.73
2018-12-13T12:12:04.882Z,3.37
2018-12-13T12:14:33.736Z,3.63
2018-12-13T12:17:02.577Z,3.57
2018-12-13T12:19:31.462Z,3.10
2018-12-13T12:22:00.544Z,3.50
2018-12-13T12:24:29.384Z,3.80
2018-12-13T12:26:58.251Z,3.60
2018-12-13T12:29:27.283Z,3.40
2018-12-13T12:31:56.175Z,3.13
2018-12-13T12:34:25.177Z,3.50
2018-12-13T12:36:54.045Z,3.23
2018-12-13T12:39:22.934Z,3.40
2018-12-13T12:41:52.027Z,3.33
2018-12-13T12:44:20.833Z,3.10
2018-12-13T12:46:49.842Z,3.40
2018-12-13T12:49:18.752Z,3.27
2018-12-13T12:51:47.906Z,3.20
2018-12-13T12:54:16.781Z,3.10
2018-12-13T12:56:45.750Z,3.07
2018-12-13T12:59:14.634Z,3.10
2018-12-13T13:01:43.652Z,3.30
2018-12-13T13:04:12.509Z,3.17
2018-12-13T13:06:41.319Z,3.40
2018-12-13T13:09:10.173Z,3.03
2018-12-13T13:11:39.179Z,3.10
2018-12-13T13:14:08.002Z,3.00
2018-12-13T13:16:37.092Z,2.93
2018-12-13T13:19:05.951Z,2.70
2018-12-13T13:21:34.797Z,3.17
2018-12-13T13:24:03.649Z,2.87
2018-12-13T13:26:33.061Z,3.00
2018-12-13T13:29:01.832Z,2.90
2018-12-13T13:31:30.830Z,3.00
2018-12-13T13:33:59.726Z,2.80
2018-12-13T13:36:28.772Z,2.80
2018-12-13T13:38:57.617Z,2.87
2018-12-13T13:41:26.518Z,2.90
2018-12-13T13:43:55.487Z,2.90
2018-12-13T13:46:24.362Z,2.73
2018-12-13T13:48:53.321Z,2.60
2018-12-13T13:51:22.163Z,2.83
2018-12-13T13:53:51.129Z,2.70
2018-12-13T13:56:20.019Z,2.40
2018-12-13T13:58:48.938Z,2.80
2018-12-13T14:01:17.945Z,2.60
2018-12-13T14:03:46.827Z,2.63
2018-12-13T14:06:15.873Z,2.33
2018-12-13T14:08:44.881Z,2.73
2018-12-13T14:11:13.701Z,2.40
2018-12-13T14:13:42.531Z,2.30
2018-12-13T14:16:11.502Z,2.57
2018-12-13T14:18:40.689Z,2.43
2018-12-13T14:21:09.551Z,2.60
2018-12-13T14:23:38.344Z,2.40
2018-12-13T14:26:07.436Z,2.50
2018-12-13T14:28:36.229Z,2.47
2018-12-13T14:31:05.067Z,2.60
2018-12-13T14:33:33.939Z,2.40
2018-12-13T14:36:02.910Z,2.37
2018-12-13T14:38:31.895Z,2.40
2018-12-13T14:41:00.899Z,2.60
2018-12-13T14:43:30.317Z,2.00
2018-12-13T14:45:59.073Z,2.50
2018-12-13T14:48:28.335Z,2.60
2018-12-13T14:50:57.173Z,2.60
2018-12-13T14:53:25.997Z,2.33
2018-12-13T14:55:54.839Z,2.60
2018-12-13T14:58:23.683Z,2.40
2018-12-13T15:00:52.502Z,2.30
2018-12-13T15:03:21.427Z,2.40
2018-12-13T15:05:50.274Z,2.33
2018-12-13T15:08:19.223Z,2.33
2018-12-13T15:10:48.091Z,2.57
2018-12-13T15:13:17.088Z,2.63
2018-12-13T15:15:46.104Z,2.20
2018-12-13T15:18:15.001Z,2.67
2018-12-13T15:20:43.851Z,2.30
2018-12-13T15:23:12.660Z,2.37
2018-12-13T15:25:41.837Z,1.97
2018-12-13T15:28:10.811Z,2.17
2018-12-13T15:30:39.784Z,2.23
2018-12-13T15:33:08.882Z,2.03
2018-12-13T15:35:37.661Z,2.40
2018-12-13T15:38:06.533Z,2.50
2018-12-13T15:40:35.371Z,2.40
2018-12-13T15:43:04.317Z,2.30
2018-12-13T15:45:33.201Z,2.20
2018-12-13T15:48:02.233Z,2.33
2018-12-13T15:50:31.223Z,2.50
2018-12-13T15:53:01.499Z,2.40
2018-12-13T15:55:31.078Z,2.50
2018-12-13T15:58:00.268Z,2.43
2018-12-13T16:00:29.490Z,2.60
2018-12-13T16:02:58.537Z,2.60
2018-12-13T16:05:27.406Z,2.33
2018-12-13T16:07:56.429Z,2.70
2018-12-13T16:10:25.525Z,2.50
2018-12-13T16:12:54.575Z,2.77
2018-12-13T16:15:23.508Z,2.60
2018-12-13T16:17:52.590Z,2.70
2018-12-13T16:20:21.875Z,2.53
2018-12-13T16:22:51.009Z,2.47
2018-12-13T16:25:20.323Z,2.80
2018-12-13T16:27:49.722Z,3.07
2018-12-13T16:30:19.512Z,2.80
2018-12-13T16:32:49.366Z,2.97
2018-12-13T16:35:18.539Z,3.17
2018-12-13T16:37:47.731Z,3.10
2018-12-13T16:40:17.154Z,3.17
2018-12-13T16:42:46.405Z,3.27
2018-12-13T16:45:15.358Z,3.00
2018-12-13T16:47:44.321Z,2.90
2018-12-13T16:50:13.219Z,2.90
2018-12-13T16:52:42.085Z,3.13
2018-12-13T16:55:11.548Z,3.00
2018-12-13T16:57:41.948Z,2.77
2018-12-13T17:00:10.940Z,3.23
2018-12-13T17:02:40.131Z,3.20
2018-12-13T17:05:09.263Z,3.57
2018-12-13T17:07:38.678Z,3.73
2018-12-13T17:10:08.925Z,3.20
2018-12-13T17:12:38.600Z,3.30
2018-12-13T17:15:08.587Z,3.70
2018-12-13T17:17:37.752Z,3.50
2018-12-13T17:20:07.125Z,3.60
2018-12-13T17:22:36.374Z,3.70
2018-12-13T17:25:05.844Z,3.60
2018-12-13T17:27:34.960Z,3.20
2018-12-13T17:30:04.045Z,3.70
2018-12-13T17:32:33.121Z,16.23
2018-12-13T17:35:02.463Z,15.97
2018-12-13T17:37:31.541Z,60.80
2018-12-13T17:40:01.307Z,56.87
2018-12-13T17:42:30.491Z,51.23
2018-12-13T17:45:00.234Z,44.20
2018-12-13T17:47:29.731Z,37.83
2018-12-13T17:49:59.017Z,49.20
2018-12-13T17:52:28.136Z,37.50
2018-12-13T17:54:57.842Z,36.20
2018-12-13T17:58:33.672Z,38.03
2018-12-13T18:01:02.810Z,33.50
2018-12-13T18:03:32.153Z,33.83
2018-12-13T18:06:01.231Z,34.67
2018-12-13T18:08:32.518Z,32.20
2018-12-13T18:11:01.489Z,30.17
2018-12-13T18:13:30.616Z,29.70
2018-12-13T18:15:59.798Z,28.80
2018-12-13T18:18:28.657Z,28.27
2018-12-13T18:20:57.523Z,27.87
2018-12-13T18:23:26.421Z,27.30
2018-12-13T18:25:55.337Z,26.80
2018-12-13T18:28:24.453Z,26.43
2018-12-13T18:30:53.304Z,26.00
2018-12-13T18:33:22.369Z,25.20
2018-12-13T18:35:51.232Z,25.53
2018-12-13T18:38:20.485Z,24.63
2018-12-13T18:40:49.379Z,26.40
2018-12-13T18:43:18.237Z,24.53
2018-12-13T18:45:47.027Z,23.43
2018-12-13T18:48:16.191Z,23.63
2018-12-13T18:50:45.065Z,24.27
2018-12-13T18:53:13.895Z,23.87
2018-12-13T18:55:42.956Z,30.13
2018-12-13T18:58:12.139Z,27.57
2018-12-13T19:00:41.454Z,28.53
2018-12-13T19:03:10.663Z,28.77
2018-12-13T19:05:39.790Z,28.40
2018-12-13T19:08:09.073Z,31.20
2018-12-13T19:10:41.863Z,28.27
2018-12-13T19:13:09.045Z,29.23
2018-12-13T19:15:38.610Z,29.17
2018-12-13T19:18:07.808Z,26.67
2018-12-13T19:20:36.770Z,25.73
2018-12-13T19:23:05.635Z,25.20
2018-12-13T19:25:34.480Z,25.63
2018-12-13T19:28:03.328Z,24.67
2018-12-13T19:30:32.253Z,25.53
2018-12-13T19:33:01.279Z,24.23
2018-12-13T19:35:30.158Z,24.23
2018-12-13T19:37:59.588Z,23.40
2018-12-13T19:40:28.426Z,22.07
2018-12-13T19:42:57.243Z,21.67
2018-12-13T19:45:26.222Z,22.63
2018-12-13T19:47:55.081Z,21.97
2018-12-13T19:50:23.942Z,21.63
2018-12-13T19:52:52.807Z,21.30
2018-12-13T19:55:21.847Z,20.80
2018-12-13T19:57:50.887Z,20.90
2018-12-13T20:00:20.060Z,20.10
2018-12-13T20:02:48.858Z,20.20
2018-12-13T20:05:17.825Z,20.07
2018-12-13T20:07:46.598Z,19.47
2018-12-13T20:10:15.711Z,19.67
2018-12-13T20:12:44.684Z,19.40
2018-12-13T20:15:13.528Z,19.23
2018-12-13T20:17:42.578Z,18.80
2018-12-13T20:20:11.866Z,17.77
2018-12-13T20:22:40.837Z,17.90
2018-12-13T20:25:10.110Z,17.80
2018-12-13T20:27:40.306Z,16.83
2018-12-13T20:30:10.149Z,18.23
2018-12-13T20:32:39.424Z,17.13
2018-12-13T20:35:08.584Z,16.30
2018-12-13T20:37:37.555Z,16.43
2018-12-13T20:40:06.579Z,16.37
2018-12-13T20:42:35.402Z,16.80
2018-12-13T20:45:05.147Z,16.10
2018-12-13T20:47:34.166Z,16.10
2018-12-13T20:50:02.987Z,16.30
2018-12-13T20:52:32.319Z,16.00
2018-12-13T20:55:01.472Z,15.33
2018-12-13T20:57:30.583Z,15.67
2018-12-13T20:59:59.534Z,16.87
2018-12-13T21:02:28.493Z,17.73
2018-12-13T21:04:57.472Z,17.27
2018-12-13T21:07:31.552Z,16.20
2018-12-13T21:10:00.567Z,16.80
2018-12-13T21:12:29.586Z,17.13
2018-12-13T21:14:58.441Z,16.00
2018-12-13T21:17:27.225Z,16.50
2018-12-13T21:19:56.019Z,14.70
2018-12-13T21:22:25.036Z,14.97
2018-12-13T21:24:53.797Z,13.90
2018-12-13T21:27:22.574Z,14.00
2018-12-13T21:29:51.830Z,13.87
2018-12-13T21:32:21.003Z,14.33
2018-12-13T21:34:50.012Z,14.37
2018-12-13T21:37:19.100Z,13.73
2018-12-13T21:39:47.995Z,13.80
2018-12-13T21:42:16.894Z,14.50
2018-12-13T21:44:45.708Z,14.47
2018-12-13T21:47:14.594Z,14.43
2018-12-13T21:49:43.461Z,13.47
2018-12-13T21:52:12.446Z,14.43
2018-12-13T21:54:41.266Z,13.17
2018-12-13T21:57:10.724Z,13.90
2018-12-13T21:59:39.693Z,13.17
2018-12-13T22:02:08.732Z,13.57
2018-12-13T22:04:37.565Z,12.63
2018-12-13T22:07:06.569Z,13.17
2018-12-13T22:09:35.559Z,12.97
2018-12-13T22:12:04.526Z,12.80
2018-12-13T22:14:33.397Z,12.87
2018-12-13T22:17:02.305Z,12.70
2018-12-13T22:19:31.159Z,12.10
2018-12-13T22:22:00.221Z,12.67
2018-12-13T22:24:29.537Z,13.20
2018-12-13T22:26:58.337Z,13.40
2018-12-13T22:29:27.533Z,14.73
2018-12-13T22:31:57.151Z,15.90
2018-12-13T22:34:26.229Z,15.60
2018-12-13T22:36:55.432Z,14.33
2018-12-13T22:39:24.449Z,13.63
2018-12-13T22:41:53.496Z,13.70
2018-12-13T22:44:22.468Z,12.77
2018-12-13T22:46:51.636Z,13.00
2018-12-13T22:49:20.737Z,12.27
2018-12-13T22:51:49.530Z,12.23
2018-12-13T22:54:18.525Z,12.07
2018-12-13T22:56:47.401Z,12.50
2018-12-13T22:59:16.177Z,12.27
2018-12-13T23:01:44.928Z,12.27
2018-12-13T23:04:13.729Z,11.63
2018-12-13T23:06:42.657Z,11.57
2018-12-13T23:09:11.824Z,12.73
2018-12-13T23:11:40.924Z,11.10
2018-12-13T23:14:10.023Z,11.13
2018-12-13T23:16:39.037Z,11.17
2018-12-13T23:19:07.819Z,10.80
2018-12-13T23:21:36.582Z,10.87
2018-12-13T23:24:05.536Z,10.60
2018-12-13T23:26:34.396Z,10.90
2018-12-13T23:29:03.180Z,10.87
2018-12-13T23:31:32.087Z,10.67
2018-12-13T23:34:00.944Z,10.47
2018-12-13T23:36:29.956Z,11.00
2018-12-13T23:38:58.744Z,9.87
2018-12-13T23:41:27.711Z,9.90
2018-12-13T23:43:56.455Z,9.80
2018-12-13T23:46:25.608Z,9.63
2018-12-13T23:48:54.901Z,10.07
2018-12-13T23:51:23.676Z,9.60
2018-12-13T23:53:52.511Z,9.70
2018-12-13T23:56:21.677Z,9.87
2018-12-13T23:58:50.966Z,9.63
